createdAt,value
2018-04-19T00:01:52.991Z,31.13
2018-04-19T00:04:23.591Z,31.67
2018-04-19T00:06:53.868Z,31.75
2018-04-19T00:09:22.345Z,31.32
2018-04-19T00:11:50.756Z,31.51
2018-04-19T00:14:19.138Z,31.29
2018-04-19T00:16:47.559Z,31.32
2018-04-19T00:19:15.987Z,31.01
2018-04-19T00:21:44.379Z,31.19
2018-04-19T00:24:12.827Z,31.54
2018-04-19T00:26:43.436Z,31.39
2018-04-19T00:29:11.948Z,31.75
2018-04-19T00:31:40.420Z,31.62
2018-04-19T00:34:08.835Z,31.61
2018-04-19T00:36:37.265Z,31.10
2018-04-19T00:39:07.851Z,31.31
2018-04-19T00:41:36.247Z,31.44
2018-04-19T00:44:04.638Z,31.61
2018-04-19T00:46:33.123Z,31.83
2018-04-19T00:49:01.565Z,32.10
2018-04-19T00:51:29.966Z,31.91
2018-04-19T00:53:58.406Z,32.40
2018-04-19T00:56:26.840Z,32.19
2018-04-19T00:58:57.367Z,32.16
2018-04-19T01:01:25.812Z,31.45
2018-04-19T01:03:56.387Z,31.00
2018-04-19T01:06:24.783Z,31.18
2018-04-19T01:08:53.190Z,30.57
2018-04-19T01:11:21.628Z,29.90
2018-04-19T01:13:54.259Z,29.77
2018-04-19T01:16:22.683Z,30.07
2018-04-19T01:18:53.058Z,29.68
2018-04-19T01:21:21.495Z,29.90
2018-04-19T01:23:50.164Z,29.62
2018-04-19T01:26:20.664Z,29.14
2018-04-19T01:28:51.223Z,29.37
2018-04-19T01:31:21.521Z,29.89
2018-04-19T01:33:50.000Z,29.82
2018-04-19T01:36:24.596Z,30.25
2018-04-19T01:38:53.054Z,29.87
2018-04-19T01:41:25.688Z,30.00
2018-04-19T01:43:56.053Z,30.22
2018-04-19T01:46:24.480Z,30.38
2018-04-19T01:48:52.888Z,30.64
2018-04-19T01:51:21.323Z,30.65
2018-04-19T01:53:49.758Z,30.82
2018-04-19T01:56:20.258Z,30.79
2018-04-19T01:58:48.656Z,30.75
2018-04-19T02:01:17.187Z,31.16
2018-04-19T02:03:45.583Z,31.53
2018-04-19T02:06:14.003Z,31.54
2018-04-19T02:08:42.424Z,31.57
2018-04-19T02:11:13.016Z,31.69
2018-04-19T02:13:41.503Z,31.58
2018-04-19T02:16:09.939Z,31.86
2018-04-19T02:18:38.463Z,32.03
2018-04-19T02:21:06.890Z,32.27
2018-04-19T02:23:35.302Z,32.49
2018-04-19T02:26:03.743Z,32.75
2018-04-19T02:28:32.198Z,32.96
2018-04-19T02:31:02.797Z,33.12
2018-04-19T02:33:31.252Z,32.98
2018-04-19T02:35:59.680Z,33.22
2018-04-19T02:38:28.063Z,32.93
2018-04-19T02:40:56.495Z,33.11
2018-04-19T02:43:27.023Z,33.32
2018-04-19T02:45:55.431Z,33.20
2018-04-19T02:48:26.043Z,33.33
2018-04-19T02:50:54.455Z,33.68
2018-04-19T02:53:23.115Z,33.48
2018-04-19T02:55:51.580Z,34.34
2018-04-19T02:58:20.013Z,34.79
2018-04-19T03:00:48.452Z,35.02
2018-04-19T03:03:16.891Z,35.36
2018-04-19T03:05:45.327Z,35.77
2018-04-19T03:08:15.484Z,36.14
2018-04-19T03:10:43.908Z,36.70
2018-04-19T03:13:12.322Z,37.19
2018-04-19T03:15:42.828Z,37.11
2018-04-19T03:18:11.259Z,37.71
2018-04-19T03:20:42.034Z,38.27
2018-04-19T03:23:10.426Z,38.88
2018-04-19T03:25:38.848Z,39.40
2018-04-19T03:28:07.327Z,39.35
2018-04-19T03:30:35.807Z,39.42
2018-04-19T03:33:06.480Z,39.80
2018-04-19T03:35:37.067Z,39.95
2018-04-19T03:38:05.525Z,40.47
2018-04-19T03:40:33.935Z,40.19
2018-04-19T03:43:02.379Z,40.63
2018-04-19T03:45:30.823Z,40.57
2018-04-19T03:47:59.353Z,40.71
2018-04-19T03:50:29.941Z,40.62
2018-04-19T03:52:58.456Z,41.10
2018-04-19T03:55:28.944Z,42.00
2018-04-19T03:57:57.347Z,41.99
2018-04-19T04:00:26.339Z,42.91
2018-04-19T04:02:56.886Z,42.76
2018-04-19T04:05:27.134Z,42.88
2018-04-19T04:07:55.567Z,43.73
2018-04-19T04:10:24.013Z,44.14
2018-04-19T04:12:52.432Z,44.69
2018-04-19T04:15:20.960Z,45.08
2018-04-19T04:31:12.254Z,45.17
2018-04-19T04:33:40.677Z,44.62
2018-04-19T04:36:10.938Z,44.43
2018-04-19T04:38:41.539Z,43.97
2018-04-19T04:41:10.303Z,45.31
2018-04-19T04:43:40.950Z,45.22
2018-04-19T04:46:11.527Z,45.59
2018-04-19T04:48:39.925Z,46.25
2018-04-19T04:51:10.689Z,46.88
2018-04-19T04:53:39.146Z,47.06
2018-04-19T04:56:09.519Z,47.04
2018-04-19T04:58:38.004Z,47.13
2018-04-19T05:01:06.419Z,46.87
2018-04-19T05:03:34.907Z,47.56
2018-04-19T05:06:05.487Z,46.74
2018-04-19T05:08:33.931Z,46.16
2018-04-19T05:11:04.108Z,45.55
2018-04-19T05:13:32.519Z,44.96
2018-04-19T05:16:00.956Z,44.02
2018-04-19T05:18:29.388Z,44.21
2018-04-19T05:20:57.799Z,44.48
2018-04-19T05:23:28.091Z,44.35
2018-04-19T05:26:00.748Z,43.83
2018-04-19T05:28:29.256Z,43.75
2018-04-19T05:30:57.684Z,43.07
2018-04-19T05:33:26.036Z,43.22
2018-04-19T05:35:54.471Z,43.36
2018-04-19T05:38:24.630Z,42.65
2018-04-19T05:40:53.045Z,42.09
2018-04-19T05:43:21.447Z,41.21
2018-04-19T05:45:51.947Z,40.96
2018-04-19T05:48:20.351Z,40.64
2018-04-19T05:50:48.779Z,41.40
2018-04-19T05:53:17.207Z,41.36
2018-04-19T05:55:45.670Z,40.88
2018-04-19T05:58:14.091Z,40.71
2018-04-19T06:00:43.941Z,39.73
2018-04-19T06:03:13.900Z,39.93
2018-04-19T06:05:42.455Z,39.22
2018-04-19T06:08:12.359Z,38.34
2018-04-19T06:10:40.713Z,38.15
2018-04-19T06:13:09.191Z,38.36
2018-04-19T06:15:38.937Z,38.61
2018-04-19T06:18:07.525Z,38.43
2018-04-19T06:20:35.878Z,36.86
2018-04-19T06:23:04.392Z,36.67
2018-04-19T06:25:34.406Z,36.41
2018-04-19T06:28:02.831Z,36.16
2018-04-19T06:30:31.291Z,36.78
2018-04-19T06:33:01.157Z,36.37
2018-04-19T06:35:29.599Z,35.44
2018-04-19T06:37:58.012Z,34.40
2018-04-19T06:40:27.948Z,32.15
2018-04-19T06:42:56.350Z,31.30
2018-04-19T06:45:24.775Z,31.64
2018-04-19T06:47:53.211Z,31.39
2018-04-19T06:50:21.565Z,31.68
2018-04-19T06:52:49.973Z,30.53
2018-04-19T06:55:20.412Z,29.94
2018-04-19T06:57:48.778Z,29.22
2018-04-19T07:00:17.261Z,28.87
2018-04-19T07:02:45.681Z,29.60
2018-04-19T07:05:14.143Z,27.33
2018-04-19T07:07:43.804Z,26.24
2018-04-19T07:10:12.350Z,25.59
2018-04-19T07:12:40.744Z,25.34
2018-04-19T07:15:09.135Z,23.68
2018-04-19T07:17:37.555Z,24.40
2018-04-19T07:20:05.939Z,24.30
2018-04-19T07:22:34.376Z,22.84
2018-04-19T07:25:02.823Z,23.13
2018-04-19T07:27:31.272Z,23.18
2018-04-19T07:30:00.951Z,22.18
2018-04-19T07:32:29.363Z,21.69
2018-04-19T07:34:57.803Z,21.48
2018-04-19T07:37:26.347Z,22.02
2018-04-19T07:39:54.805Z,21.73
2018-04-19T07:42:23.226Z,21.06
2018-04-19T07:44:51.632Z,20.44
2018-04-19T07:47:20.029Z,21.27
2018-04-19T07:49:49.603Z,20.64
2018-04-19T07:52:18.020Z,19.91
2018-04-19T07:54:46.426Z,20.41
2018-04-19T07:57:15.994Z,21.07
2018-04-19T07:59:44.395Z,21.25
2018-04-19T08:02:13.188Z,20.48
2018-04-19T08:04:41.608Z,19.81
2018-04-19T08:07:10.052Z,20.20
2018-04-19T08:09:39.931Z,19.22
2018-04-19T08:12:09.379Z,18.42
2018-04-19T08:14:39.299Z,17.18
2018-04-19T08:17:07.699Z,17.27
2018-04-19T08:19:36.194Z,17.84
2018-04-19T08:22:05.739Z,16.37
2018-04-19T08:24:35.424Z,16.81
2018-04-19T08:27:03.845Z,17.42
2018-04-19T08:29:33.541Z,17.26
2018-04-19T08:32:02.952Z,16.06
2018-04-19T08:34:31.436Z,16.33
2018-04-19T08:36:59.936Z,15.69
2018-04-19T08:39:29.440Z,16.18
2018-04-19T08:41:57.883Z,15.07
2018-04-19T08:44:27.339Z,14.38
2018-04-19T08:46:55.979Z,14.10
2018-04-19T08:49:24.393Z,13.76
2018-04-19T08:51:52.831Z,13.88
2018-04-19T08:54:21.280Z,13.35
2018-04-19T08:56:49.712Z,13.58
2018-04-19T08:59:18.182Z,13.22
2018-04-19T09:01:46.544Z,12.61
2018-04-19T09:04:14.953Z,12.70
2018-04-19T09:06:43.411Z,12.23
2018-04-19T09:09:11.755Z,11.90
2018-04-19T09:11:40.216Z,12.82
2018-04-19T09:14:08.607Z,13.61
2018-04-19T09:16:37.040Z,13.63
2018-04-19T09:19:05.463Z,13.88
2018-04-19T09:21:34.395Z,12.81
2018-04-19T09:24:02.870Z,13.00
2018-04-19T09:26:31.423Z,12.44
2018-04-19T09:28:59.883Z,12.06
2018-04-19T09:31:28.244Z,12.54
2018-04-19T09:33:57.597Z,12.02
2018-04-19T09:36:26.000Z,11.20
2018-04-19T09:38:54.423Z,10.93
2018-04-19T09:41:22.862Z,11.82
2018-04-19T09:43:51.330Z,11.65
2018-04-19T09:46:19.742Z,12.40
2018-04-19T09:48:48.261Z,12.11
2018-04-19T09:51:23.695Z,12.14
2018-04-19T09:53:52.173Z,12.53
2018-04-19T09:56:21.688Z,11.79
2018-04-19T09:58:57.272Z,11.98
2018-04-19T10:01:25.663Z,11.71
2018-04-19T10:03:54.173Z,11.76
2018-04-19T10:06:23.634Z,10.91
2018-04-19T10:08:53.115Z,11.25
2018-04-19T10:11:22.431Z,10.78
2018-04-19T10:13:50.807Z,11.85
2018-04-19T10:16:20.235Z,12.20
2018-04-19T10:18:48.664Z,11.93
2018-04-19T10:21:17.078Z,12.30
2018-04-19T10:23:45.561Z,12.31
2018-04-19T10:26:13.967Z,12.22
2018-04-19T10:28:42.503Z,11.90
2018-04-19T10:31:10.915Z,11.86
2018-04-19T10:33:40.491Z,12.04
2018-04-19T10:36:08.895Z,11.66
2018-04-19T10:38:37.267Z,11.08
2018-04-19T10:41:05.719Z,11.88
2018-04-19T10:43:34.116Z,12.63
2018-04-19T10:46:02.528Z,11.89
2018-04-19T10:48:30.935Z,11.58
2018-04-19T10:50:59.671Z,12.03
2018-04-19T10:53:28.123Z,11.62
2018-04-19T10:55:56.539Z,11.60
2018-04-19T10:58:24.901Z,12.05
2018-04-19T11:00:53.501Z,12.00
2018-04-19T11:03:21.936Z,12.50
2018-04-19T11:05:50.380Z,13.27
2018-04-19T11:08:19.889Z,13.73
2018-04-19T11:10:48.379Z,13.74
2018-04-19T11:13:16.810Z,13.41
2018-04-19T11:15:45.192Z,13.42
2018-04-19T11:18:14.627Z,13.87
2018-04-19T11:20:43.187Z,14.02
2018-04-19T11:23:11.609Z,14.30
2018-04-19T11:25:40.015Z,15.16
2018-04-19T11:28:08.504Z,16.70
2018-04-19T11:30:36.925Z,16.25
2018-04-19T11:33:05.322Z,16.49
2018-04-19T11:35:33.813Z,16.53
2018-04-19T11:38:02.240Z,15.30
2018-04-19T11:40:30.603Z,17.27
2018-04-19T11:42:59.190Z,16.03
2018-04-19T11:45:27.617Z,16.66
2018-04-19T11:47:56.025Z,16.36
2018-04-19T11:50:24.436Z,16.30
2018-04-19T11:52:52.850Z,17.70
2018-04-19T11:55:21.288Z,17.07
2018-04-19T11:57:49.695Z,17.78
2018-04-19T12:00:18.127Z,17.24
2018-04-19T12:02:46.523Z,17.52
2018-04-19T12:05:14.940Z,17.93
2018-04-19T12:07:43.445Z,17.57
2018-04-19T12:10:11.839Z,17.62
2018-04-19T12:12:40.292Z,17.05
2018-04-19T12:15:08.717Z,17.23
2018-04-19T12:17:37.154Z,17.77
2018-04-19T12:20:05.627Z,17.58
2018-04-19T12:22:34.091Z,17.47
2018-04-19T12:25:02.523Z,17.56
2018-04-19T12:27:32.025Z,17.02
2018-04-19T12:30:00.387Z,17.03
2018-04-19T12:32:29.075Z,16.87
2018-04-19T12:34:57.556Z,18.03
2018-04-19T12:37:25.981Z,18.35
2018-04-19T12:39:54.398Z,18.55
2018-04-19T12:42:22.795Z,18.68
2018-04-19T12:44:51.197Z,18.71
2018-04-19T12:47:19.627Z,18.03
2018-04-19T12:49:49.055Z,17.86
2018-04-19T12:52:17.487Z,18.12
2018-04-19T12:54:45.858Z,18.38
2018-04-19T12:57:14.329Z,18.07
2018-04-19T12:59:43.738Z,18.74
2018-04-19T13:02:13.432Z,19.98
2018-04-19T13:04:41.860Z,19.19
2018-04-19T13:07:10.215Z,19.00
2018-04-19T13:09:38.612Z,19.18
2018-04-19T13:12:07.035Z,19.40
2018-04-19T13:14:35.452Z,19.74
2018-04-19T13:17:03.860Z,19.50
2018-04-19T13:19:32.308Z,19.67
2018-04-19T13:22:00.723Z,19.84
2018-04-19T13:24:29.119Z,19.57
2018-04-19T13:26:57.543Z,19.03
2018-04-19T13:29:26.943Z,19.08
2018-04-19T13:31:55.404Z,19.20
2018-04-19T13:34:24.814Z,18.37
2018-04-19T13:36:53.296Z,18.39
2018-04-19T13:39:21.705Z,19.35
2018-04-19T13:41:50.372Z,19.18
2018-04-19T13:44:18.775Z,18.44
2018-04-19T13:46:47.299Z,18.47
2018-04-19T13:49:15.731Z,18.41
2018-04-19T13:51:45.212Z,18.79
2018-04-19T13:54:13.703Z,17.74
2018-04-19T13:56:42.212Z,18.05
2018-04-19T13:59:10.614Z,19.10
2018-04-19T14:01:39.032Z,19.55
2018-04-19T14:04:08.668Z,19.43
2018-04-19T14:06:38.446Z,18.66
2018-04-19T14:09:06.868Z,17.92
2018-04-19T14:11:35.282Z,17.47
2018-04-19T14:14:05.127Z,17.59
2018-04-19T14:16:33.561Z,17.23
2018-04-19T14:19:03.072Z,17.65
2018-04-19T14:21:31.504Z,17.22
2018-04-19T14:23:59.955Z,18.19
2018-04-19T14:26:29.372Z,18.43
2018-04-19T14:28:57.800Z,17.95
2018-04-19T14:31:27.622Z,17.36
2018-04-19T14:33:56.032Z,18.62
2018-04-19T14:36:24.463Z,18.27
2018-04-19T14:38:52.976Z,17.63
2018-04-19T14:41:21.487Z,17.78
2018-04-19T14:43:49.911Z,18.33
2018-04-19T14:46:18.323Z,19.86
2018-04-19T14:48:46.805Z,21.27
2018-04-19T14:51:15.217Z,21.86
2018-04-19T14:53:43.624Z,21.40
2018-04-19T14:56:13.424Z,22.15
2018-04-19T14:58:41.818Z,22.61
2018-04-19T15:01:10.301Z,22.56
2018-04-19T15:03:38.708Z,22.01
2018-04-19T15:06:07.155Z,22.60
2018-04-19T15:08:35.601Z,22.50
2018-04-19T15:11:04.007Z,22.42
2018-04-19T15:13:32.470Z,22.28
2018-04-19T15:16:02.372Z,22.26
2018-04-19T15:18:30.884Z,22.05
2018-04-19T15:20:59.272Z,22.54
2018-04-19T15:23:31.050Z,21.55
2018-04-19T15:25:59.453Z,20.66
2018-04-19T15:28:27.835Z,21.07
2018-04-19T15:30:56.291Z,21.53
2018-04-19T15:33:26.174Z,19.07
2018-04-19T15:35:56.243Z,19.82
2018-04-19T15:38:24.715Z,19.50
2018-04-19T15:40:53.810Z,20.64
2018-04-19T15:43:22.293Z,21.19
2018-04-19T15:45:52.255Z,21.84
2018-04-19T15:48:22.136Z,22.58
2018-04-19T15:50:50.568Z,23.25
2018-04-19T15:53:22.632Z,23.94
2018-04-19T15:55:51.052Z,22.89
2018-04-19T15:58:22.861Z,22.33
2018-04-19T16:00:51.319Z,22.69
2018-04-19T16:03:19.831Z,22.91
2018-04-19T16:05:48.296Z,22.98
2018-04-19T16:08:16.976Z,22.74
2018-04-19T16:10:45.370Z,22.99
2018-04-19T16:13:13.776Z,22.98
2018-04-19T16:15:42.233Z,22.66
2018-04-19T16:18:10.631Z,23.20
2018-04-19T16:20:39.086Z,23.37
2018-04-19T16:23:07.525Z,23.40
2018-04-19T16:25:35.914Z,22.40
2018-04-19T16:28:04.345Z,22.49
2018-04-19T16:30:34.397Z,23.09
2018-04-19T16:33:02.851Z,23.27
2018-04-19T16:35:34.881Z,23.25
2018-04-19T16:38:03.364Z,23.38
2018-04-19T16:40:31.807Z,22.94
2018-04-19T16:43:01.731Z,23.01
2018-04-19T16:45:33.627Z,22.57
2018-04-19T16:48:02.044Z,22.93
2018-04-19T16:50:30.540Z,23.48
2018-04-19T16:52:58.974Z,23.18
2018-04-19T16:55:31.039Z,23.13
2018-04-19T16:57:59.508Z,23.56
2018-04-19T17:00:29.380Z,24.04
2018-04-19T17:02:59.423Z,24.27
2018-04-19T17:05:27.884Z,24.10
2018-04-19T17:07:56.347Z,24.74
2018-04-19T17:10:24.819Z,24.93
2018-04-19T17:12:53.319Z,24.45
2018-04-19T17:15:21.736Z,24.35
2018-04-19T17:17:50.147Z,25.16
2018-04-19T17:20:20.092Z,24.67
2018-04-19T17:22:50.060Z,24.72
2018-04-19T17:25:18.556Z,24.91
2018-04-19T17:27:52.111Z,25.67
2018-04-19T17:30:22.024Z,25.38
2018-04-19T17:32:51.945Z,25.96
2018-04-19T17:35:24.164Z,25.37
2018-04-19T17:37:52.622Z,25.71
2018-04-19T17:40:21.036Z,25.69
2018-04-19T17:42:51.140Z,25.92
2018-04-19T17:45:19.572Z,26.39
2018-04-19T17:47:48.144Z,26.29
2018-04-19T17:50:20.228Z,26.35
2018-04-19T17:52:48.742Z,26.50
2018-04-19T17:55:17.181Z,26.56
2018-04-19T17:57:45.608Z,26.53
2018-04-19T18:00:18.111Z,26.82
2018-04-19T18:02:50.042Z,27.15
2018-04-19T18:05:20.463Z,26.72
2018-04-19T18:07:48.905Z,26.94
2018-04-19T18:10:21.478Z,27.22
2018-04-19T18:12:49.962Z,27.43
2018-04-19T18:15:18.458Z,27.61
2018-04-19T18:17:46.896Z,27.75
2018-04-19T18:20:15.350Z,28.64
2018-04-19T18:22:43.832Z,28.68
2018-04-19T18:25:12.259Z,28.36
2018-04-19T18:27:40.844Z,28.34
2018-04-19T18:30:09.273Z,28.79
2018-04-19T18:32:37.725Z,28.48
2018-04-19T18:35:06.167Z,28.89
2018-04-19T18:37:36.855Z,29.44
2018-04-19T18:40:07.567Z,29.43
2018-04-19T18:42:36.000Z,29.20
2018-04-19T18:45:04.640Z,29.64
2018-04-19T18:47:33.155Z,30.34
2018-04-19T18:50:01.618Z,30.13
2018-04-19T18:52:30.111Z,30.43
2018-04-19T18:54:58.572Z,31.12
2018-04-19T18:57:26.993Z,30.78
2018-04-19T18:59:55.474Z,31.15
2018-04-19T19:02:23.948Z,31.30
2018-04-19T19:04:54.468Z,31.42
2018-04-19T19:07:22.946Z,31.57
2018-04-19T19:09:51.361Z,31.91
2018-04-19T19:12:19.835Z,32.38
2018-04-19T19:14:52.179Z,32.60
2018-04-19T19:17:26.691Z,32.90
2018-04-19T19:20:01.308Z,33.34
2018-04-19T19:22:29.791Z,32.89
2018-04-19T19:24:58.297Z,33.10
2018-04-19T19:27:28.815Z,33.29
2018-04-19T19:29:57.321Z,33.46
2018-04-19T19:32:25.798Z,33.23
2018-04-19T19:34:54.326Z,33.61
2018-04-19T19:37:25.158Z,33.58
2018-04-19T19:39:55.758Z,33.53
2018-04-19T19:42:26.416Z,33.23
2018-04-19T19:44:56.921Z,32.85
2018-04-19T19:47:25.581Z,32.71
2018-04-19T19:49:56.065Z,33.07
2018-04-19T19:52:24.492Z,32.96
2018-04-19T19:54:53.155Z,33.26
2018-04-19T19:57:21.583Z,33.53
2018-04-19T19:59:50.089Z,33.76
2018-04-19T20:02:20.631Z,34.16
2018-04-19T20:04:49.076Z,34.55
2018-04-19T20:07:17.576Z,34.89
2018-04-19T20:09:48.177Z,34.55
2018-04-19T20:12:16.908Z,35.12
2018-04-19T20:14:47.439Z,35.41
2018-04-19T20:17:15.878Z,35.61
2018-04-19T20:19:46.474Z,35.07
2018-04-19T20:22:17.084Z,35.05
2018-04-19T20:24:45.584Z,35.60
2018-04-19T20:27:18.218Z,35.57
2018-04-19T20:29:46.711Z,35.46
2018-04-19T20:32:15.120Z,35.99
2018-04-19T20:34:45.793Z,35.93
2018-04-19T20:37:14.247Z,36.64
2018-04-19T20:39:44.859Z,37.15
2018-04-19T20:42:15.477Z,36.95
2018-04-19T20:44:43.946Z,37.11
2018-04-19T20:47:14.591Z,37.06
2018-04-19T20:49:43.058Z,36.73
2018-04-19T20:52:11.533Z,36.95
2018-04-19T20:54:39.945Z,36.49
2018-04-19T20:57:10.547Z,36.35
2018-04-19T20:59:41.158Z,36.67
2018-04-19T21:02:09.669Z,37.22
2018-04-19T21:04:38.077Z,37.38
2018-04-19T21:07:06.532Z,37.64
2018-04-19T21:09:34.999Z,38.24
2018-04-19T21:12:03.948Z,37.91
2018-04-19T21:14:32.566Z,38.42
2018-04-19T21:17:00.999Z,38.41
2018-04-19T21:19:29.460Z,38.74
2018-04-19T21:21:58.019Z,38.30
2018-04-19T21:24:26.494Z,38.23
2018-04-19T21:26:56.999Z,38.49
2018-04-19T21:29:25.467Z,38.75
2018-04-19T21:31:53.898Z,38.15
2018-04-19T21:34:22.370Z,37.77
2018-04-19T21:36:50.855Z,38.54
2018-04-19T21:39:21.430Z,38.22
2018-04-19T21:41:49.894Z,37.33
2018-04-19T21:44:20.632Z,37.49
2018-04-19T21:46:52.143Z,37.18
2018-04-19T21:49:20.566Z,37.19
2018-04-19T21:51:49.027Z,37.19
2018-04-19T21:54:18.332Z,37.35
2018-04-19T21:56:46.782Z,36.09
2018-04-19T21:59:15.187Z,36.38
2018-04-19T22:01:45.830Z,37.09
2018-04-19T22:04:14.286Z,37.21
2018-04-19T22:06:42.735Z,37.21
2018-04-19T22:09:11.224Z,36.67
2018-04-19T22:11:39.699Z,36.94
2018-04-19T22:14:08.135Z,36.94
2018-04-19T22:16:36.563Z,36.73
2018-04-19T22:19:09.213Z,37.20
2018-04-19T22:21:37.703Z,37.88
2018-04-19T22:24:06.148Z,37.38
2018-04-19T22:26:34.597Z,37.28
2018-04-19T22:29:03.000Z,37.83
2018-04-19T22:31:33.475Z,37.11
2018-04-19T22:34:01.892Z,37.34
2018-04-19T22:36:32.494Z,36.90
2018-04-19T22:39:03.150Z,36.92
2018-04-19T22:41:33.767Z,37.21
2018-04-19T22:44:02.286Z,37.25
2018-04-19T22:46:30.715Z,37.02
2018-04-19T22:49:01.335Z,37.39
2018-04-19T22:51:29.829Z,38.13
2018-04-19T22:53:58.412Z,38.61
2018-04-19T22:56:27.368Z,37.85
2018-04-19T22:58:55.791Z,37.85
2018-04-19T23:01:24.280Z,37.75
2018-04-19T23:03:54.878Z,37.94
2018-04-19T23:06:23.338Z,38.19
2018-04-19T23:08:53.957Z,38.26
2018-04-19T23:11:22.377Z,38.60
2018-04-19T23:13:53.935Z,39.29
2018-04-19T23:16:22.355Z,39.66
2018-04-19T23:18:50.784Z,39.38
2018-04-19T23:21:21.368Z,39.44
2018-04-19T23:23:49.811Z,38.53
2018-04-19T23:26:19.129Z,38.84
2018-04-19T23:28:49.687Z,39.40
2018-04-19T23:31:18.077Z,39.09
2018-04-19T23:33:46.535Z,39.14
2018-04-19T23:36:14.979Z,38.80
2018-04-19T23:38:43.439Z,39.07
2018-04-19T23:41:11.863Z,39.34
2018-04-19T23:43:42.395Z,39.42
2018-04-19T23:46:10.790Z,39.55
2018-04-19T23:48:39.216Z,39.62
2018-04-19T23:51:07.621Z,39.22
2018-04-19T23:53:36.264Z,39.52
2018-04-19T23:56:04.668Z,39.49
2018-04-19T23:58:35.319Z,39.37
